Morrison, Argentina
Current Conditions -  °F | °C
As of 7:00 PM on Saturday 20 Dec 2014 (Local Time) from SAOC Reporting Station
Scattered Clouds Scattered Clouds  
Wind Chill: 70°   Ceiling: Unl
Heat Index: 70°   Visibility: 6mi
Dew Point: 43°   Wind: 20mph
Humidity: 38%   Direction: 140°SE
Pressure: 29.68"   Gusts: NA
Location:  32.6°S, 62.83°W
Report Text: SAOC 202200Z 14017KT 9999 SCT030 SCT10021/06 Q1005
Loading
Personal Weather Stations






























Interactive Weather Map New forecast layout! Learn more

10-Day Weather Forecast

Advertisements
Track Severe Weather on mobile